M\v Black Rhino — V7TR7 — position and weather

sailwx.info

Track history (hours):
 
Tides and Currents Weather Stations Pressure Air Temp Water Temp Dewpoint Dewpoint Depression Visibility Wind Speed Wind Dir Waves Ship Positions

M\v Black Rhino

Last reported at 2016-Sep-21 23:17 UTC. Time now 2016-Sep-26 05:28 UTC.
Position S 29°12' E 031°54'.

Length 101 m; draft 5.2 m.

Type: Ship. MMSI: 538090408.

Date/timePositionNaut miles runAvg speedWind from/ knotsBaromVisibWave heightAir tempDewpointWater temp
2016-Sep-21 23:17S 29°12' E 031°54'911.9
2016-Sep-21 22:33S 29°19' E 031°47'3611.8
2016-Sep-21 19:31S 29°44' E 031°18'16 5.3
2016-Sep-21 16:32S 29°52' E 031°03'0 0.0
2016-Sep-21 09:31S 29°52' E 031°03'0 0.0
2016-Sep-21 08:31S 29°52' E 031°03'0 0.0
2016-Sep-21 03:33S 29°52' E 031°03'0 0.0
2016-Sep-21 02:33S 29°52' E 031°03'5 0.6
2016-Sep-20 17:33S 29°48' E 031°06'1 0.4
2016-Sep-20 14:32S 29°48' E 031°05'0 0.3
2016-Sep-20 13:33S 29°47' E 031°05'5 1.6
2016-Sep-20 10:34S 29°44' E 031°08'0 0.0
2016-Sep-20 08:32S 29°44' E 031°08'0 0.0
2016-Sep-20 07:32S 29°44' E 031°08'0 0.0
2016-Sep-20 06:32S 29°44' E 031°08'0 0.0
2016-Sep-20 02:31S 29°44' E 031°08'0 0.0
2016-Sep-19 23:33S 29°44' E 031°08'0 0.0
2016-Sep-19 19:34S 29°44' E 031°08'0 0.0
2016-Sep-19 18:33S 29°44' E 031°08'0 0.0
2016-Sep-19 16:29S 29°44' E 031°08'0 0.0
2016-Sep-19 14:32S 29°44' E 031°08'0 0.0
2016-Sep-19 13:32S 29°44' E 031°08'0 0.0
2016-Sep-19 12:33S 29°43' E 031°08'0 0.0
2016-Sep-19 11:32S 29°43' E 031°08'0 0.0
2016-Sep-19 09:33S 29°43' E 031°08'0 0.0
2016-Sep-19 07:33S 29°43' E 031°08'0 0.0
2016-Sep-19 06:33S 29°43' E 031°08'0 0.0
2016-Sep-19 03:33S 29°43' E 031°08'0 0.0
2016-Sep-19 02:33S 29°43' E 031°08'0 0.0
2016-Sep-19 00:32S 29°43' E 031°08'0 0.0
2016-Sep-18 19:25S 29°43' E 031°08'0 0.0
2016-Sep-18 15:32S 29°43' E 031°08'0 0.0
2016-Sep-18 14:33S 29°43' E 031°08'0 0.0
2016-Sep-18 10:32S 29°43' E 031°08'0 0.0
2016-Sep-18 09:32S 29°43' E 031°08'0 0.0
2016-Sep-18 02:33S 29°43' E 031°08'0 0.0
2016-Sep-18 01:32S 29°43' E 031°08'0 0.0
2016-Sep-18 00:32S 29°43' E 031°08'0 0.0
2016-Sep-17 22:33S 29°43' E 031°08'0 0.0
2016-Sep-17 21:32S 29°43' E 031°08'0 0.2
2016-Sep-17 20:31S 29°44' E 031°08'0 0.1
2016-Sep-17 19:14S 29°44' E 031°08'0 0.0
2016-Sep-17 13:32S 29°44' E 031°08'0 0.1
2016-Sep-17 12:31S 29°44' E 031°08'0 0.0
2016-Sep-17 10:31S 29°44' E 031°08'0 0.0
2016-Sep-17 09:33S 29°44' E 031°08'0 0.0
2016-Sep-17 08:32S 29°44' E 031°08'0 0.0
2016-Sep-17 07:32S 29°44' E 031°08'0 0.0
2016-Sep-17 05:33S 29°44' E 031°08'0 0.0
2016-Sep-17 04:32S 29°44' E 031°08'0 0.0
2016-Sep-17 00:31S 29°44' E 031°08'0 0.0
2016-Sep-16 17:32S 29°44' E 031°08'0 0.0
2016-Sep-16 15:33S 29°44' E 031°08'0 0.0
2016-Sep-16 12:33S 29°44' E 031°08'0 0.1
2016-Sep-16 09:33S 29°44' E 031°08'0 0.0
2016-Sep-16 07:32S 29°44' E 031°08'0 0.0
2016-Sep-16 03:31S 29°44' E 031°08'0 0.1
2016-Sep-16 02:32S 29°44' E 031°08'0 0.0
2016-Sep-16 00:32S 29°44' E 031°08'0 0.0
2016-Sep-15 22:32S 29°44' E 031°08'0 0.0
2016-Sep-15 21:32S 29°44' E 031°08'0 0.0
2016-Sep-15 20:32S 29°44' E 031°08'0 0.0
2016-Sep-15 18:33S 29°44' E 031°08'0 0.0
2016-Sep-15 12:33S 29°44' E 031°08'0 0.0
2016-Sep-15 11:27S 29°44' E 031°08'0 0.0
2016-Sep-15 04:33S 29°44' E 031°08'0 0.0
2016-Sep-15 03:33S 29°44' E 031°08'0 0.0
2016-Sep-15 01:33S 29°44' E 031°08'0 0.0
2016-Sep-14 22:30S 29°44' E 031°08'0 0.1
2016-Sep-14 21:33S 29°44' E 031°08'0 0.0
2016-Sep-14 17:31S 29°44' E 031°08'0 0.0
2016-Sep-14 16:33S 29°44' E 031°08'0 0.0
2016-Sep-14 13:33S 29°44' E 031°08'0 0.0
2016-Sep-14 12:32S 29°44' E 031°08'0 0.0
2016-Sep-14 10:32S 29°44' E 031°08'0 0.0
2016-Sep-14 09:33S 29°44' E 031°08'0 0.0
2016-Sep-14 08:32S 29°44' E 031°08'0 0.0
2016-Sep-14 07:30S 29°44' E 031°08'0 0.0
2016-Sep-14 06:32S 29°44' E 031°08'0 0.0
2016-Sep-14 03:28S 29°44' E 031°08'0 0.0
2016-Sep-13 22:33S 29°44' E 031°08'0 0.0
2016-Sep-13 20:31S 29°44' E 031°08'0 0.0
2016-Sep-13 18:21S 29°44' E 031°08'0 0.0
2016-Sep-13 17:33S 29°44' E 031°08'0 0.0
2016-Sep-13 16:33S 29°44' E 031°08'0 0.0
2016-Sep-13 11:33S 29°44' E 031°08'0 0.0
2016-Sep-13 09:33S 29°44' E 031°08'0 0.0
2016-Sep-13 07:33S 29°44' E 031°08'0 0.0
2016-Sep-13 06:30S 29°44' E 031°08'0 0.0
2016-Sep-13 04:30S 29°44' E 031°08'0 0.0
2016-Sep-13 02:33S 29°44' E 031°08'0 0.0
2016-Sep-12 23:31S 29°44' E 031°08'0 0.0
2016-Sep-12 21:31S 29°44' E 031°08'0 0.0
2016-Sep-12 19:33S 29°44' E 031°08'0 0.1
2016-Sep-12 17:33S 29°44' E 031°08'0 0.0
2016-Sep-12 14:33S 29°44' E 031°08'0 0.0
2016-Sep-12 13:33S 29°44' E 031°08'0 0.0
2016-Sep-12 12:33S 29°44' E 031°08'0 0.0
2016-Sep-12 11:33S 29°44' E 031°08'0 0.0
2016-Sep-12 10:33S 29°44' E 031°08'0 0.0
2016-Sep-12 07:33S 29°44' E 031°08'0 0.0
2016-Sep-12 06:33S 29°44' E 031°08'0 0.0
2016-Sep-12 03:33S 29°44' E 031°08'0 0.0
2016-Sep-12 01:33S 29°44' E 031°08'0 0.0
2016-Sep-11 23:34S 29°44' E 031°08'  
Track history (hours):
 
Tides and Currents Weather Stations Pressure Air Temp Water Temp Dewpoint Dewpoint Depression Visibility Wind Speed Wind Dir Waves Ship Positions

M\v Black Rhino

Last reported at 2016-Sep-21 23:17 UTC. Time now 2016-Sep-26 05:28 UTC.
Position S 29°12' E 031°54'.

Length 101 m; draft 5.2 m.

Type: Ship. MMSI: 538090408.

Date/timePositionNaut miles runAvg speedWind from/ knotsBaromVisibWave heightAir tempDewpointWater temp
2016-Sep-21 23:17S 29°12' E 031°54'911.9
2016-Sep-21 22:33S 29°19' E 031°47'3611.8
2016-Sep-21 19:31S 29°44' E 031°18'16 5.3
2016-Sep-21 16:32S 29°52' E 031°03'0 0.0
2016-Sep-21 09:31S 29°52' E 031°03'0 0.0
2016-Sep-21 08:31S 29°52' E 031°03'0 0.0
2016-Sep-21 03:33S 29°52' E 031°03'0 0.0
2016-Sep-21 02:33S 29°52' E 031°03'5 0.6
2016-Sep-20 17:33S 29°48' E 031°06'1 0.4
2016-Sep-20 14:32S 29°48' E 031°05'0 0.3
2016-Sep-20 13:33S 29°47' E 031°05'5 1.6
2016-Sep-20 10:34S 29°44' E 031°08'0 0.0
2016-Sep-20 08:32S 29°44' E 031°08'0 0.0
2016-Sep-20 07:32S 29°44' E 031°08'0 0.0
2016-Sep-20 06:32S 29°44' E 031°08'0 0.0
2016-Sep-20 02:31S 29°44' E 031°08'0 0.0
2016-Sep-19 23:33S 29°44' E 031°08'0 0.0
2016-Sep-19 19:34S 29°44' E 031°08'0 0.0
2016-Sep-19 18:33S 29°44' E 031°08'0 0.0
2016-Sep-19 16:29S 29°44' E 031°08'0 0.0
2016-Sep-19 14:32S 29°44' E 031°08'0 0.0
2016-Sep-19 13:32S 29°44' E 031°08'0 0.0
2016-Sep-19 12:33S 29°43' E 031°08'0 0.0
2016-Sep-19 11:32S 29°43' E 031°08'0 0.0
2016-Sep-19 09:33S 29°43' E 031°08'0 0.0
2016-Sep-19 07:33S 29°43' E 031°08'0 0.0
2016-Sep-19 06:33S 29°43' E 031°08'0 0.0
2016-Sep-19 03:33S 29°43' E 031°08'0 0.0
2016-Sep-19 02:33S 29°43' E 031°08'0 0.0
2016-Sep-19 00:32S 29°43' E 031°08'0 0.0
2016-Sep-18 19:25S 29°43' E 031°08'0 0.0
2016-Sep-18 15:32S 29°43' E 031°08'0 0.0
2016-Sep-18 14:33S 29°43' E 031°08'0 0.0
2016-Sep-18 10:32S 29°43' E 031°08'0 0.0
2016-Sep-18 09:32S 29°43' E 031°08'0 0.0
2016-Sep-18 02:33S 29°43' E 031°08'0 0.0
2016-Sep-18 01:32S 29°43' E 031°08'0 0.0
2016-Sep-18 00:32S 29°43' E 031°08'0 0.0
2016-Sep-17 22:33S 29°43' E 031°08'0 0.0
2016-Sep-17 21:32S 29°43' E 031°08'0 0.2
2016-Sep-17 20:31S 29°44' E 031°08'0 0.1
2016-Sep-17 19:14S 29°44' E 031°08'0 0.0
2016-Sep-17 13:32S 29°44' E 031°08'0 0.1
2016-Sep-17 12:31S 29°44' E 031°08'0 0.0
2016-Sep-17 10:31S 29°44' E 031°08'0 0.0
2016-Sep-17 09:33S 29°44' E 031°08'0 0.0
2016-Sep-17 08:32S 29°44' E 031°08'0 0.0
2016-Sep-17 07:32S 29°44' E 031°08'0 0.0
2016-Sep-17 05:33S 29°44' E 031°08'0 0.0
2016-Sep-17 04:32S 29°44' E 031°08'0 0.0
2016-Sep-17 00:31S 29°44' E 031°08'0 0.0
2016-Sep-16 17:32S 29°44' E 031°08'0 0.0
2016-Sep-16 15:33S 29°44' E 031°08'0 0.0
2016-Sep-16 12:33S 29°44' E 031°08'0 0.1
2016-Sep-16 09:33S 29°44' E 031°08'0 0.0
2016-Sep-16 07:32S 29°44' E 031°08'0 0.0
2016-Sep-16 03:31S 29°44' E 031°08'0 0.1
2016-Sep-16 02:32S 29°44' E 031°08'0 0.0
2016-Sep-16 00:32S 29°44' E 031°08'0 0.0
2016-Sep-15 22:32S 29°44' E 031°08'0 0.0
2016-Sep-15 21:32S 29°44' E 031°08'0 0.0
2016-Sep-15 20:32S 29°44' E 031°08'0 0.0
2016-Sep-15 18:33S 29°44' E 031°08'0 0.0
2016-Sep-15 12:33S 29°44' E 031°08'0 0.0
2016-Sep-15 11:27S 29°44' E 031°08'0 0.0
2016-Sep-15 04:33S 29°44' E 031°08'0 0.0
2016-Sep-15 03:33S 29°44' E 031°08'0 0.0
2016-Sep-15 01:33S 29°44' E 031°08'0 0.0
2016-Sep-14 22:30S 29°44' E 031°08'0 0.1
2016-Sep-14 21:33S 29°44' E 031°08'0 0.0
2016-Sep-14 17:31S 29°44' E 031°08'0 0.0
2016-Sep-14 16:33S 29°44' E 031°08'0 0.0
2016-Sep-14 13:33S 29°44' E 031°08'0 0.0
2016-Sep-14 12:32S 29°44' E 031°08'0 0.0
2016-Sep-14 10:32S 29°44' E 031°08'0 0.0
2016-Sep-14 09:33S 29°44' E 031°08'0 0.0
2016-Sep-14 08:32S 29°44' E 031°08'0 0.0
2016-Sep-14 07:30S 29°44' E 031°08'0 0.0
2016-Sep-14 06:32S 29°44' E 031°08'0 0.0
2016-Sep-14 03:28S 29°44' E 031°08'0 0.0
2016-Sep-13 22:33S 29°44' E 031°08'0 0.0
2016-Sep-13 20:31S 29°44' E 031°08'0 0.0
2016-Sep-13 18:21S 29°44' E 031°08'0 0.0
2016-Sep-13 17:33S 29°44' E 031°08'0 0.0
2016-Sep-13 16:33S 29°44' E 031°08'0 0.0
2016-Sep-13 11:33S 29°44' E 031°08'0 0.0
2016-Sep-13 09:33S 29°44' E 031°08'0 0.0
2016-Sep-13 07:33S 29°44' E 031°08'0 0.0
2016-Sep-13 06:30S 29°44' E 031°08'0 0.0
2016-Sep-13 04:30S 29°44' E 031°08'0 0.0
2016-Sep-13 02:33S 29°44' E 031°08'0 0.0
2016-Sep-12 23:31S 29°44' E 031°08'0 0.0
2016-Sep-12 21:31S 29°44' E 031°08'0 0.0
2016-Sep-12 19:33S 29°44' E 031°08'0 0.1
2016-Sep-12 17:33S 29°44' E 031°08'0 0.0
2016-Sep-12 14:33S 29°44' E 031°08'0 0.0
2016-Sep-12 13:33S 29°44' E 031°08'0 0.0
2016-Sep-12 12:33S 29°44' E 031°08'0 0.0
2016-Sep-12 11:33S 29°44' E 031°08'0 0.0
2016-Sep-12 10:33S 29°44' E 031°08'0 0.0
2016-Sep-12 07:33S 29°44' E 031°08'0 0.0
2016-Sep-12 06:33S 29°44' E 031°08'0 0.0
2016-Sep-12 03:33S 29°44' E 031°08'0 0.0
2016-Sep-12 01:33S 29°44' E 031°08'0 0.0
2016-Sep-11 23:34S 29°44' E 031°08'  

Dump ship's entire track history